Terminal Aerodrome Forecast
Issued by NWS

Home | Current Version | Previous Version | Text Only | Print | Product List | Glossary On
Versions: 1 2 3 4 5 6 7 8 9 10 11 12 13 14 15 16 17 18 19
000
FTUS43 KICT 041738
TAFRSL
TAF
KRSL 041738Z 0418/0518 17013KT P6SM SCT050 BKN300
     FM050000 17013KT P6SM BKN150
     FM050300 15009KT P6SM BKN080 OVC150=

USA.gov is the U.S. government's official web portal to all federal, state and local government web resources and services.